Time;durP1;ratioP1;P1;durP2;ratioP2;P2;SDS_P1;SDS_P2;PMS_P1;PMS_P2;Temp;Humidity;BMP_temperature;BMP_pressure;BME280_temperature;BME280_humidity;BME280_pressure;Samples;Min_cycle;Max_cycle;Signal;HPM_P1;HPM_P2
2023/01/09 00:01:52;;;;;;;14.07;3.50;;;8.00;99.90;;;;;;5017377;28;20673;-81
2023/01/09 00:04:19;;;;;;;9.97;3.13;;;8.00;99.90;;;;;;5005247;28;20207;-81
2023/01/09 00:06:52;;;;;;;17.20;3.87;;;8.00;99.90;;;;;;5006668;28;20207;-79
2023/01/09 00:09:20;;;;;;;17.87;3.30;;;7.90;99.90;;;;;;5007541;28;20235;-82
2023/01/09 00:11:47;;;;;;;12.60;2.83;;;7.90;99.90;;;;;;5007658;28;20502;-80
2023/01/09 00:14:14;;;;;;;17.17;3.77;;;7.80;99.90;;;;;;5007515;28;20237;-81
2023/01/09 00:16:41;;;;;;;13.90;2.97;;;7.80;99.90;;;;;;5008252;28;20227;-81
2023/01/09 00:19:10;;;;;;;23.03;3.90;;;7.80;99.90;;;;;;5007675;28;20278;-79
2023/01/09 00:21:37;;;;;;;12.43;3.20;;;7.80;99.90;;;;;;5008252;28;20637;-80
2023/01/09 00:24:05;;;;;;;12.13;2.50;;;7.80;99.90;;;;;;5008006;28;20754;-80
2023/01/09 00:26:32;;;;;;;11.07;2.03;;;7.80;99.90;;;;;;5007321;28;20211;-79
2023/01/09 00:28:59;;;;;;;9.77;2.40;;;7.80;99.90;;;;;;5007724;28;20582;-80
2023/01/09 00:31:26;;;;;;;10.40;2.20;;;7.80;99.90;;;;;;5006786;28;20203;-79
2023/01/09 00:33:56;;;;;;;13.07;4.13;;;7.80;99.90;;;;;;5007068;28;20199;-82
2023/01/09 00:36:24;;;;;;;9.73;2.10;;;7.70;99.90;;;;;;5027642;28;20194;-81
2023/01/09 00:38:52;;;;;;;14.97;3.33;;;7.70;99.90;;;;;;5014850;28;20230;-81
2023/01/09 00:41:23;;;;;;;18.70;3.47;;;7.70;99.90;;;;;;5007170;28;20596;-79
2023/01/09 00:43:52;;;;;;;18.43;3.23;;;7.60;99.90;;;;;;5006607;28;20297;-79
2023/01/09 00:46:24;;;;;;;12.67;2.67;;;7.60;99.90;;;;;;5006462;28;20637;-81
2023/01/09 00:48:51;;;;;;;12.53;3.00;;;7.60;99.90;;;;;;5006761;28;20202;-80
2023/01/09 00:51:20;;;;;;;16.10;3.70;;;7.60;99.90;;;;;;5006173;28;20190;-80
2023/01/09 00:53:50;;;;;;;23.00;3.40;;;7.60;99.90;;;;;;5005578;28;20211;-79
2023/01/09 00:56:20;;;;;;;15.63;3.93;;;7.50;99.90;;;;;;5005974;28;20206;-79
2023/01/09 00:58:47;;;;;;;14.93;3.10;;;7.50;99.90;;;;;;5005798;28;20959;-83
2023/01/09 01:01:14;;;;;;;13.37;4.07;;;7.50;99.90;;;;;;5006415;28;20270;-80
2023/01/09 01:03:41;;;;;;;13.97;3.80;;;7.50;99.90;;;;;;5005155;28;20211;-80
2023/01/09 01:08:54;;;;;;;11.00;2.53;;;7.40;99.90;;;;;;5005976;28;20265;-81
2023/01/09 01:11:21;;;;;;;8.77;2.47;;;7.30;99.90;;;;;;5005700;28;20218;-80
2023/01/09 01:13:48;;;;;;;13.83;3.20;;;7.30;99.90;;;;;;5005001;28;20273;-81
2023/01/09 01:16:17;;;;;;;13.77;3.70;;;7.20;99.90;;;;;;5004517;28;20207;-81
2023/01/09 01:18:44;;;;;;;13.77;3.63;;;7.30;99.90;;;;;;5005630;28;20623;-80
2023/01/09 01:21:13;;;;;;;12.27;3.63;;;7.30;99.90;;;;;;5005755;28;20855;-81
2023/01/09 01:23:40;;;;;;;14.80;3.20;;;7.30;99.90;;;;;;5005116;28;20253;-80
2023/01/09 01:26:10;;;;;;;16.00;4.00;;;7.30;99.90;;;;;;5005884;28;20207;-80
2023/01/09 01:28:38;;;;;;;14.13;3.50;;;7.30;99.90;;;;;;5004763;28;20221;-84
2023/01/09 01:31:05;;;;;;;11.33;2.73;;;7.30;99.90;;;;;;5007626;28;20197;-82
2023/01/09 01:33:33;;;;;;;12.67;2.60;;;7.30;99.90;;;;;;5006751;28;20203;-81
2023/01/09 01:36:01;;;;;;;8.33;2.10;;;7.20;99.90;;;;;;5005272;28;20294;-81
2023/01/09 01:38:30;;;;;;;10.03;2.40;;;7.10;99.90;;;;;;5005444;28;20227;-80
2023/01/09 01:40:57;;;;;;;8.97;1.87;;;7.20;99.90;;;;;;5005897;28;20227;-80
2023/01/09 01:43:26;;;;;;;13.50;2.20;;;7.10;99.90;;;;;;5005836;28;20203;-80
2023/01/09 01:45:53;;;;;;;9.57;1.70;;;7.10;99.90;;;;;;5006458;28;20199;-81
2023/01/09 01:48:24;;;;;;;7.73;2.37;;;7.10;99.90;;;;;;5006070;28;20203;-80
2023/01/09 01:50:56;;;;;;;7.37;1.60;;;7.10;99.90;;;;;;5004430;28;20191;-80
2023/01/09 01:53:27;;;;;;;10.93;2.00;;;7.10;99.90;;;;;;5005943;28;20618;-80
2023/01/09 01:56:06;;;;;;;5.73;1.83;;;7.00;99.90;;;;;;5006007;28;20221;-80
2023/01/09 01:58:39;;;;;;;7.13;1.47;;;7.00;99.90;;;;;;5005218;28;20206;-81
2023/01/09 02:01:06;;;;;;;5.53;1.27;;;7.00;99.90;;;;;;5005739;28;20195;-80
2023/01/09 02:03:34;;;;;;;5.93;2.10;;;6.90;99.90;;;;;;5004488;28;20292;-81
2023/01/09 02:06:03;;;;;;;8.20;2.20;;;7.00;99.90;;;;;;5006287;28;20207;-82
2023/01/09 02:08:30;;;;;;;5.13;1.70;;;7.00;99.90;;;;;;5007328;28;20960;-83
2023/01/09 02:10:57;;;;;;;5.47;1.60;;;6.90;99.90;;;;;;5006281;28;20206;-81
2023/01/09 02:13:26;;;;;;;5.73;1.97;;;6.90;99.90;;;;;;5006234;28;20247;-83
2023/01/09 02:16:10;;;;;;;8.67;2.27;;;6.90;99.90;;;;;;5007253;28;20205;-82
2023/01/09 02:18:50;;;;;;;5.47;1.60;;;6.90;99.90;;;;;;5006164;28;20211;-81
2023/01/09 02:21:24;;;;;;;8.77;2.17;;;6.90;99.90;;;;;;5008653;28;20214;-83
2023/01/09 02:24:11;;;;;;;6.97;2.33;;;6.80;99.90;;;;;;5010303;28;20203;-80
2023/01/09 02:27:23;;;;;;;10.17;2.83;;;6.90;99.90;;;;;;5009990;28;20310;-81
2023/01/09 02:30:32;;;;;;;8.20;1.77;;;6.90;99.90;;;;;;5010164;28;20205;-81
2023/01/09 02:33:20;;;;;;;8.40;2.00;;;6.80;99.90;;;;;;5009221;28;20209;-80
2023/01/09 02:36:04;;;;;;;6.80;1.90;;;6.80;99.90;;;;;;5010371;28;20753;-80
2023/01/09 02:38:36;;;;;;;7.40;2.77;;;6.80;99.90;;;;;;5009842;28;20346;-80
2023/01/09 02:41:11;;;;;;;7.30;1.80;;;6.80;99.90;;;;;;5027992;28;20203;-82
2023/01/09 02:43:39;;;;;;;6.10;1.90;;;6.80;99.90;;;;;;5009425;28;20203;-83
2023/01/09 02:46:11;;;;;;;5.13;2.00;;;6.80;99.90;;;;;;5009188;28;20610;-85
2023/01/09 02:48:40;;;;;;;6.33;2.03;;;6.80;99.90;;;;;;5010111;28;20203;-80
2023/01/09 02:51:16;;;;;;;6.27;2.00;;;6.80;99.90;;;;;;5009863;28;20568;-79
2023/01/09 02:54:09;;;;;;;7.73;2.30;;;6.70;99.90;;;;;;5009027;28;20219;-83
2023/01/09 02:56:54;;;;;;;3.83;1.80;;;6.80;99.90;;;;;;5008352;28;20302;-82
2023/01/09 02:59:27;;;;;;;5.63;2.23;;;6.70;99.90;;;;;;5009152;28;20215;-78
2023/01/09 03:02:20;;;;;;;5.77;2.60;;;6.70;99.90;;;;;;5008962;28;20203;-80
2023/01/09 03:04:57;;;;;;;6.43;2.43;;;6.70;99.90;;;;;;5008944;28;20596;-81
2023/01/09 03:07:29;;;;;;;9.90;2.83;;;6.70;99.90;;;;;;5011954;28;20298;-79
2023/01/09 03:10:09;;;;;;;7.37;2.33;;;6.70;99.90;;;;;;5011201;28;20219;-82
2023/01/09 03:12:38;;;;;;;5.50;2.63;;;6.70;99.90;;;;;;5011114;28;20246;-79
2023/01/09 03:15:10;;;;;;;6.93;3.03;;;6.70;99.90;;;;;;5010427;28;20205;-80
2023/01/09 03:17:41;;;;;;;7.73;2.97;;;6.70;99.90;;;;;;5011851;28;20199;-82
2023/01/09 03:20:19;;;;;;;8.13;2.90;;;6.70;99.90;;;;;;5016305;28;20238;-81
2023/01/09 03:22:53;;;;;;;4.43;2.70;;;6.70;99.90;;;;;;5009250;28;20558;-81
2023/01/09 03:25:20;;;;;;;6.20;3.67;;;6.70;99.90;;;;;;5009246;28;20210;-80
2023/01/09 03:27:48;;;;;;;6.63;2.67;;;6.70;99.90;;;;;;5008772;28;20306;-79
2023/01/09 03:30:15;;;;;;;5.97;2.77;;;6.70;99.90;;;;;;5009756;28;20203;-80
2023/01/09 03:32:42;;;;;;;8.40;3.30;;;6.70;99.90;;;;;;5007697;28;20564;-80
2023/01/09 03:35:11;;;;;;;11.33;3.37;;;6.70;99.90;;;;;;5008925;28;20207;-80
2023/01/09 03:37:37;;;;;;;9.03;3.37;;;6.70;99.90;;;;;;5008676;28;20203;-80
2023/01/09 03:40:05;;;;;;;9.90;3.20;;;6.80;99.90;;;;;;5009062;28;20565;-79
2023/01/09 03:42:32;;;;;;;5.67;3.27;;;6.80;99.90;;;;;;5008815;28;20223;-79
2023/01/09 03:44:59;;;;;;;8.40;3.43;;;6.70;99.90;;;;;;5011931;28;20671;-85
2023/01/09 03:47:26;;;;;;;6.67;3.10;;;6.70;99.90;;;;;;5011998;28;20298;-81
2023/01/09 03:49:53;;;;;;;6.30;3.07;;;6.70;99.90;;;;;;5027216;28;20293;-84
2023/01/09 03:52:21;;;;;;;8.70;3.40;;;6.70;99.90;;;;;;5031782;28;20197;-84
2023/01/09 03:54:48;;;;;;;12.80;4.27;;;6.70;99.90;;;;;;5031040;28;20213;-82
2023/01/09 03:57:15;;;;;;;11.03;3.53;;;6.70;99.90;;;;;;5030487;28;20202;-83
2023/01/09 03:59:42;;;;;;;10.60;3.27;;;6.70;99.90;;;;;;5030456;28;20749;-80
2023/01/09 04:02:09;;;;;;;8.43;2.97;;;6.70;99.90;;;;;;5031328;28;20898;-84
2023/01/09 04:04:36;;;;;;;10.43;3.73;;;6.70;99.90;;;;;;5019507;28;20318;-85
2023/01/09 04:07:03;;;;;;;13.47;3.70;;;6.70;99.90;;;;;;5010228;28;20209;-84
2023/01/09 04:09:31;;;;;;;5.40;2.87;;;6.80;99.90;;;;;;5011110;28;20659;-84
2023/01/09 04:11:58;;;;;;;9.40;3.77;;;6.80;99.90;;;;;;5011554;28;20237;-86
2023/01/09 04:14:25;;;;;;;7.67;3.90;;;6.80;99.90;;;;;;5010181;28;20243;-85
2023/01/09 04:16:52;;;;;;;8.50;3.73;;;6.70;99.90;;;;;;5006472;28;20214;-81
2023/01/09 04:19:19;;;;;;;8.07;3.37;;;6.80;99.90;;;;;;5008162;28;20229;-81
2023/01/09 04:21:46;;;;;;;8.30;3.47;;;6.70;99.90;;;;;;5007390;28;20647;-80
2023/01/09 04:24:13;;;;;;;8.63;3.70;;;6.70;99.90;;;;;;5007671;28;20730;-80
2023/01/09 04:26:41;;;;;;;10.07;3.67;;;6.70;99.90;;;;;;5007485;28;20211;-79
2023/01/09 04:29:08;;;;;;;7.60;3.90;;;6.70;99.90;;;;;;5009227;28;20219;-82
2023/01/09 04:31:35;;;;;;;11.03;4.63;;;6.70;99.90;;;;;;5008365;28;20214;-80
2023/01/09 04:34:01;;;;;;;11.17;4.40;;;6.70;99.90;;;;;;5007633;28;20203;-81
2023/01/09 04:36:28;;;;;;;14.80;4.53;;;6.70;99.90;;;;;;5029309;28;20219;-81
2023/01/09 04:38:55;;;;;;;7.47;4.83;;;6.70;99.90;;;;;;5030798;28;20333;-85
2023/01/09 04:44:07;;;;;;;7.80;5.73;;;6.80;99.90;;;;;;5022073;28;20207;-82
2023/01/09 04:46:34;;;;;;;7.90;4.97;;;6.80;99.90;;;;;;5014887;28;20762;-85
2023/01/09 04:49:01;;;;;;;9.93;5.23;;;6.80;99.90;;;;;;5012466;28;20227;-80
2023/01/09 04:51:27;;;;;;;5.50;4.57;;;6.80;99.90;;;;;;5030006;28;20230;-83
2023/01/09 04:53:54;;;;;;;12.87;5.60;;;6.80;99.90;;;;;;5013746;28;20207;-84
2023/01/09 04:56:21;;;;;;;13.17;5.73;;;6.80;99.90;;;;;;5010312;28;20785;-86
2023/01/09 04:58:48;;;;;;;9.70;5.87;;;6.90;99.90;;;;;;5013112;28;20509;-87
2023/01/09 05:01:16;;;;;;;8.03;5.50;;;6.90;99.90;;;;;;5031393;28;20281;-80
2023/01/09 05:03:43;;;;;;;9.37;5.30;;;6.90;99.90;;;;;;5031123;28;20202;-87
2023/01/09 05:06:10;;;;;;;13.53;5.10;;;6.90;99.90;;;;;;5030158;28;20209;-83
2023/01/09 05:08:37;;;;;;;7.33;5.47;;;6.90;99.90;;;;;;5029038;28;20325;-85
2023/01/09 05:11:04;;;;;;;8.97;5.20;;;6.90;99.90;;;;;;5030005;28;20195;-82
2023/01/09 05:13:31;;;;;;;9.40;5.00;;;6.90;99.90;;;;;;5029720;28;20330;-85
2023/01/09 05:15:58;;;;;;;8.47;4.80;;;6.90;99.90;;;;;;5030439;28;20256;-85
2023/01/09 05:18:26;;;;;;;9.07;4.93;;;6.90;99.90;;;;;;5030796;28;20202;-86
2023/01/09 05:20:53;;;;;;;7.77;5.53;;;6.90;99.90;;;;;;5031343;28;20202;-83
2023/01/09 05:23:20;;;;;;;10.07;4.97;;;6.90;99.90;;;;;;5011784;28;20892;-87
2023/01/09 05:25:47;;;;;;;9.40;4.60;;;6.90;99.90;;;;;;5009319;28;20433;-86
2023/01/09 05:28:14;;;;;;;9.20;4.20;;;6.90;99.90;;;;;;5009286;28;20730;-83
2023/01/09 05:30:41;;;;;;;6.40;4.53;;;6.90;99.90;;;;;;5016542;28;20587;-86
2023/01/09 05:33:08;;;;;;;11.23;4.67;;;6.90;99.90;;;;;;5030102;28;20489;-84
2023/01/09 05:35:37;;;;;;;9.87;4.60;;;6.90;99.90;;;;;;5029440;28;20206;-86
2023/01/09 05:38:03;;;;;;;8.80;4.53;;;6.90;99.90;;;;;;5026473;28;20243;-87
2023/01/09 05:40:30;;;;;;;10.00;4.63;;;6.90;99.90;;;;;;5009999;28;20226;-87
2023/01/09 05:42:57;;;;;;;8.47;4.37;;;6.90;99.90;;;;;;5010547;28;20313;-87
2023/01/09 05:45:25;;;;;;;10.00;4.30;;;6.90;99.90;;;;;;5007746;28;20206;-86
2023/01/09 05:47:53;;;;;;;9.53;4.43;;;6.90;99.90;;;;;;5006461;28;20208;-80
2023/01/09 05:50:20;;;;;;;8.07;4.80;;;6.90;99.90;;;;;;5010081;28;20202;-79
2023/01/09 05:52:48;;;;;;;9.43;5.03;;;6.90;99.90;;;;;;5025514;28;20202;-79
2023/01/09 05:55:15;;;;;;;8.60;4.47;;;6.90;99.90;;;;;;5021250;28;20215;-79
2023/01/09 05:57:42;;;;;;;7.77;4.17;;;6.90;99.90;;;;;;5005427;28;20221;-79
2023/01/09 06:00:10;;;;;;;11.33;5.03;;;6.90;99.90;;;;;;5005496;28;20302;-81
2023/01/09 06:02:37;;;;;;;6.70;4.17;;;6.90;99.90;;;;;;5004699;28;20207;-80
2023/01/09 06:05:04;;;;;;;7.67;4.43;;;6.90;99.90;;;;;;5005634;28;20650;-82
2023/01/09 06:07:33;;;;;;;11.90;3.97;;;6.90;99.90;;;;;;5005764;28;20199;-80
2023/01/09 06:10:01;;;;;;;5.53;3.93;;;6.90;99.90;;;;;;5005140;28;20219;-82
2023/01/09 06:12:28;;;;;;;10.37;3.60;;;6.90;99.90;;;;;;5005507;28;20599;-79
2023/01/09 06:14:55;;;;;;;7.77;4.33;;;6.90;99.90;;;;;;5006993;28;20213;-80
2023/01/09 06:17:22;;;;;;;6.97;4.17;;;6.90;99.90;;;;;;5006730;28;20213;-81
2023/01/09 06:19:50;;;;;;;8.53;4.17;;;6.80;99.90;;;;;;5006886;28;20219;-80
2023/01/09 06:22:17;;;;;;;7.70;3.77;;;6.90;99.90;;;;;;5006259;28;20285;-80
2023/01/09 06:24:44;;;;;;;7.30;4.80;;;6.90;99.90;;;;;;5008166;28;20268;-80
2023/01/09 06:27:12;;;;;;;7.07;4.97;;;6.80;99.90;;;;;;5025909;28;20745;-81
2023/01/09 06:29:40;;;;;;;9.43;5.80;;;6.80;99.90;;;;;;5022169;28;20218;-79
2023/01/09 06:32:07;;;;;;;10.70;6.07;;;6.80;99.90;;;;;;5005816;28;20199;-82
2023/01/09 06:34:33;;;;;;;8.63;6.40;;;6.80;99.90;;;;;;5006072;28;20207;-80
2023/01/09 06:37:00;;;;;;;9.60;6.67;;;6.80;99.90;;;;;;5006928;28;20718;-81
2023/01/09 06:39:27;;;;;;;9.13;6.40;;;6.80;99.90;;;;;;5007569;28;20235;-86
2023/01/09 06:41:54;;;;;;;14.07;7.63;;;6.80;99.90;;;;;;5007720;28;20211;-83
2023/01/09 06:44:22;;;;;;;10.50;7.33;;;6.80;99.90;;;;;;5005295;28;20203;-86
2023/01/09 06:46:49;;;;;;;10.30;6.90;;;6.80;99.90;;;;;;5005783;28;20298;-83
2023/01/09 06:49:16;;;;;;;10.43;6.77;;;6.80;99.90;;;;;;5005794;28;20513;-80
2023/01/09 06:51:43;;;;;;;9.33;6.80;;;6.80;99.90;;;;;;5018222;28;20669;-80
2023/01/09 06:54:10;;;;;;;9.23;6.77;;;6.80;99.90;;;;;;5025611;28;20290;-79
2023/01/09 06:56:38;;;;;;;10.03;7.03;;;6.80;99.90;;;;;;5018373;28;20234;-80
2023/01/09 06:59:05;;;;;;;10.37;6.53;;;6.80;99.90;;;;;;5005341;28;20207;-80
2023/01/09 07:01:33;;;;;;;13.20;7.00;;;6.80;99.90;;;;;;5005098;28;20610;-79
2023/01/09 07:04:00;;;;;;;9.90;7.43;;;6.80;99.90;;;;;;5005150;28;20210;-79
2023/01/09 07:06:27;;;;;;;11.23;7.07;;;6.80;99.90;;;;;;5004060;28;20219;-80
2023/01/09 07:08:54;;;;;;;11.40;6.73;;;6.80;99.90;;;;;;5008687;28;20701;-79
2023/01/09 07:11:21;;;;;;;10.30;6.73;;;6.80;99.90;;;;;;5009407;28;20286;-79
2023/01/09 07:13:48;;;;;;;12.03;7.57;;;6.80;99.90;;;;;;5008586;28;20239;-79
2023/01/09 07:16:14;;;;;;;9.67;7.13;;;6.80;99.90;;;;;;5008042;28;20227;-80
2023/01/09 07:18:43;;;;;;;10.33;7.37;;;6.80;99.90;;;;;;5007742;28;20238;-80
2023/01/09 07:21:10;;;;;;;12.23;7.53;;;6.80;99.90;;;;;;5008045;28;20238;-79
2023/01/09 07:23:36;;;;;;;12.33;7.97;;;6.80;99.90;;;;;;5007986;28;20582;-80
2023/01/09 07:26:04;;;;;;;13.10;7.63;;;6.80;99.90;;;;;;5008482;28;20191;-80
2023/01/09 07:28:31;;;;;;;13.07;8.00;;;6.80;99.90;;;;;;5007074;28;20215;-79
2023/01/09 07:31:01;;;;;;;11.10;7.40;;;6.80;99.90;;;;;;5008422;28;20205;-79
2023/01/09 07:33:28;;;;;;;11.20;7.63;;;6.90;99.90;;;;;;5007674;28;20207;-79
2023/01/09 07:35:56;;;;;;;12.07;8.40;;;6.90;99.90;;;;;;5007904;28;20234;-80
2023/01/09 07:38:23;;;;;;;11.67;8.43;;;6.80;99.90;;;;;;5008085;28;20200;-81
2023/01/09 07:40:50;;;;;;;10.97;8.20;;;6.80;99.90;;;;;;5006815;28;20229;-80
2023/01/09 07:43:17;;;;;;;12.77;8.63;;;6.80;99.90;;;;;;5008992;28;20508;-79
2023/01/09 07:45:45;;;;;;;12.67;8.57;;;6.90;99.90;;;;;;5009165;28;20207;-81
2023/01/09 07:48:12;;;;;;;16.93;9.40;;;6.80;99.90;;;;;;5008396;28;20294;-83
2023/01/09 07:50:39;;;;;;;17.27;10.57;;;6.80;99.90;;;;;;5008475;28;20314;-79
2023/01/09 07:53:07;;;;;;;14.13;9.33;;;6.80;99.90;;;;;;5008095;28;20214;-83
2023/01/09 07:55:34;;;;;;;11.57;9.30;;;6.90;99.90;;;;;;5006297;28;20199;-81
2023/01/09 07:58:01;;;;;;;8.70;7.33;;;6.80;99.90;;;;;;5007750;28;20290;-79
2023/01/09 08:00:28;;;;;;;10.70;8.73;;;6.90;99.90;;;;;;5007357;28;20561;-82
2023/01/09 08:02:55;;;;;;;9.20;7.87;;;6.90;99.90;;;;;;5012061;28;20206;-78
2023/01/09 08:05:22;;;;;;;12.57;9.00;;;6.90;99.90;;;;;;5019613;28;20275;-81
2023/01/09 08:07:50;;;;;;;9.83;8.20;;;6.90;99.90;;;;;;5009158;28;20207;-83
2023/01/09 08:10:19;;;;;;;13.70;8.37;;;6.90;99.90;;;;;;5009742;28;20253;-80
2023/01/09 08:12:46;;;;;;;8.87;7.50;;;6.90;99.90;;;;;;5008815;28;20237;-83
2023/01/09 08:15:13;;;;;;;12.50;8.23;;;6.90;99.90;;;;;;5008322;28;20756;-82
2023/01/09 08:17:42;;;;;;;11.37;8.67;;;6.90;99.90;;;;;;4999535;28;20200;-80
2023/01/09 08:20:11;;;;;;;13.87;8.33;;;7.00;99.90;;;;;;5007077;28;20233;-81
2023/01/09 08:22:38;;;;;;;8.73;7.43;;;7.00;99.90;;;;;;5006890;28;20974;-79
2023/01/09 08:25:06;;;;;;;9.90;7.50;;;7.00;99.90;;;;;;5008285;28;20299;-83
2023/01/09 08:27:38;;;;;;;9.83;7.77;;;7.00;99.90;;;;;;4987616;28;20211;-84
2023/01/09 08:30:06;;;;;;;9.67;7.57;;;7.00;99.90;;;;;;5025793;28;20591;-82
2023/01/09 08:32:33;;;;;;;9.80;7.67;;;7.00;99.90;;;;;;5027772;28;20198;-80
2023/01/09 08:35:00;;;;;;;11.70;8.80;;;7.00;99.90;;;;;;5029169;28;20276;-82
2023/01/09 08:37:27;;;;;;;13.40;9.50;;;7.00;99.90;;;;;;5027533;28;20517;-82
2023/01/09 08:39:54;;;;;;;11.43;8.87;;;7.00;99.90;;;;;;5032256;28;20840;-80
2023/01/09 08:47:53;;;;;;;19.00;11.60;;;7.10;99.90;;;;;;5026586;28;20198;-81
2023/01/09 08:50:20;;;;;;;14.47;11.30;;;7.10;99.90;;;;;;5036702;28;20206;-80
2023/01/09 08:52:47;;;;;;;13.23;9.90;;;7.10;99.90;;;;;;5025517;28;20677;-81
2023/01/09 08:55:14;;;;;;;14.80;10.60;;;7.10;99.90;;;;;;5048866;28;20214;-81
2023/01/09 08:57:48;;;;;;;14.53;9.53;;;7.10;99.90;;;;;;5033101;28;20203;-81
2023/01/09 09:00:17;;;;;;;13.43;10.37;;;7.10;99.90;;;;;;5008329;28;20321;-83
2023/01/09 09:02:44;;;;;;;11.60;9.50;;;7.10;99.90;;;;;;5008573;28;20215;-82
2023/01/09 09:05:11;;;;;;;11.80;10.47;;;7.10;99.90;;;;;;5025083;28;20289;-81
2023/01/09 09:07:40;;;;;;;12.93;9.97;;;7.10;99.90;;;;;;5044129;28;20297;-81
2023/01/09 09:10:08;;;;;;;14.13;10.70;;;7.20;99.90;;;;;;5032142;28;20204;-81
2023/01/09 09:12:34;;;;;;;16.77;11.20;;;7.20;99.90;;;;;;5046019;28;20241;-78
2023/01/09 09:17:52;;;;;;;16.37;10.13;;;7.20;99.90;;;;;;5009708;28;20530;-78
2023/01/09 09:20:19;;;;;;;16.70;10.33;;;7.30;99.90;;;;;;5005728;28;20231;-80
2023/01/09 09:22:46;;;;;;;13.43;10.07;;;7.30;99.90;;;;;;5006072;28;20302;-80
2023/01/09 09:25:13;;;;;;;18.53;9.47;;;7.30;99.90;;;;;;5006771;28;20663;-79
2023/01/09 09:27:40;;;;;;;16.47;9.60;;;7.30;99.90;;;;;;5006119;28;20291;-80
2023/01/09 09:30:09;;;;;;;15.73;9.10;;;7.40;99.90;;;;;;5006777;28;20261;-79
2023/01/09 09:32:36;;;;;;;12.60;6.40;;;7.40;99.90;;;;;;5006735;28;20290;-82
2023/01/09 09:35:05;;;;;;;12.30;4.20;;;7.60;99.90;;;;;;5006347;28;20213;-82
2023/01/09 09:37:32;;;;;;;14.57;4.23;;;7.70;99.90;;;;;;5006645;28;20222;-80
2023/01/09 09:39:59;;;;;;;10.80;2.80;;;7.90;99.90;;;;;;5007841;28;20269;-79
2023/01/09 09:45:42;;;;;;;15.43;2.77;;;8.10;99.90;;;;;;5023424;28;20221;-82
2023/01/09 09:48:23;;;;;;;11.97;3.00;;;8.20;99.90;;;;;;5006724;28;20209;-80
2023/01/09 09:51:22;;;;;;;11.63;2.73;;;8.20;99.90;;;;;;5006999;28;20187;-82
2023/01/09 09:53:54;;;;;;;14.77;3.37;;;8.30;99.90;;;;;;5021473;28;20210;-79
2023/01/09 09:56:23;;;;;;;13.13;4.33;;;8.30;99.90;;;;;;5024965;28;20666;-80
2023/01/09 09:58:54;;;;;;;11.97;3.90;;;8.40;99.90;;;;;;5026201;28;20220;-79
2023/01/09 10:01:27;;;;;;;14.17;3.17;;;8.40;99.90;;;;;;5024409;28;20222;-80
2023/01/09 10:03:57;;;;;;;12.73;2.80;;;8.50;99.90;;;;;;5006904;28;20184;-81
2023/01/09 10:06:29;;;;;;;14.73;3.20;;;8.50;99.90;;;;;;5007192;28;20218;-79
2023/01/09 10:09:01;;;;;;;14.10;3.50;;;8.50;99.90;;;;;;5006272;28;20215;-79
2023/01/09 10:11:37;;;;;;;15.67;2.97;;;8.60;99.90;;;;;;5006542;28;20207;-78
2023/01/09 10:14:06;;;;;;;8.13;2.20;;;8.60;99.90;;;;;;5006920;28;20234;-80
2023/01/09 10:16:49;;;;;;;8.83;2.17;;;8.60;99.90;;;;;;5005744;28;20207;-81
2023/01/09 10:19:30;;;;;;;11.77;2.37;;;8.70;99.90;;;;;;5009768;28;20209;-81
2023/01/09 10:22:08;;;;;;;17.53;3.63;;;8.80;99.90;;;;;;5009059;28;20956;-79
2023/01/09 10:24:58;;;;;;;8.70;2.17;;;8.80;99.90;;;;;;5009904;28;20289;-79
2023/01/09 10:27:36;;;;;;;13.13;2.83;;;8.80;99.90;;;;;;5025941;28;20201;-83
2023/01/09 10:30:26;;;;;;;10.07;3.33;;;8.90;99.90;;;;;;5010537;28;20203;-82
2023/01/09 10:33:03;;;;;;;11.83;3.23;;;8.90;99.90;;;;;;5004440;28;20192;-83
2023/01/09 10:35:46;;;;;;;8.17;3.20;;;8.90;99.90;;;;;;5009788;28;20222;-88
2023/01/09 10:38:18;;;;;;;11.70;2.57;;;9.00;99.90;;;;;;5024392;28;20305;-87
2023/01/09 10:40:51;;;;;;;16.13;3.50;;;9.00;99.90;;;;;;5030205;28;20218;-88
2023/01/09 10:43:29;;;;;;;12.10;3.00;;;9.00;99.90;;;;;;5021891;28;20211;-87
2023/01/09 10:46:02;;;;;;;13.10;2.77;;;9.00;99.90;;;;;;5013103;28;20183;-83
2023/01/09 10:48:33;;;;;;;13.77;3.27;;;9.00;99.90;;;;;;5030055;28;20861;-82
2023/01/09 10:51:00;;;;;;;10.10;3.33;;;9.00;99.90;;;;;;5031723;28;20904;-85
2023/01/09 10:53:34;;;;;;;12.03;2.67;;;9.00;99.90;;;;;;5034505;28;20262;-86
2023/01/09 10:56:06;;;;;;;8.13;2.73;;;9.00;99.90;;;;;;5033669;28;20654;-85
2023/01/09 10:58:33;;;;;;;12.77;2.73;;;9.00;99.90;;;;;;5029998;28;20203;-86
2023/01/09 11:01:02;;;;;;;9.23;3.13;;;9.00;99.90;;;;;;5025834;28;20580;-89
2023/01/09 11:03:29;;;;;;;13.50;3.00;;;9.00;99.90;;;;;;5014060;28;20591;-85
2023/01/09 11:05:58;;;;;;;10.80;3.27;;;9.00;99.90;;;;;;5013566;28;20265;-81
2023/01/09 11:08:31;;;;;;;17.57;5.27;;;9.00;99.90;;;;;;5012602;28;20230;-87
2023/01/09 11:11:00;;;;;;;13.23;3.37;;;9.00;99.90;;;;;;5014282;28;20221;-86
2023/01/09 11:13:30;;;;;;;12.33;3.33;;;8.90;99.90;;;;;;5010653;28;20543;-88
2023/01/09 11:16:17;;;;;;;9.30;2.40;;;8.90;99.90;;;;;;5009086;28;20206;-87
2023/01/09 11:18:51;;;;;;;22.37;4.70;;;8.90;99.90;;;;;;5010002;28;20218;-88
2023/01/09 11:21:40;;;;;;;13.00;3.37;;;8.90;99.90;;;;;;5037762;28;20217;-92
2023/01/09 11:24:30;;;;;;;12.73;3.50;;;8.90;99.90;;;;;;5026391;28;20210;-91
2023/01/09 11:27:23;;;;;;;13.30;3.60;;;9.00;99.90;;;;;;5018778;28;20223;-85
2023/01/09 11:30:16;;;;;;;15.00;3.63;;;9.00;99.90;;;;;;5014045;28;20199;-89
2023/01/09 11:32:44;;;;;;;12.07;3.40;;;9.10;99.90;;;;;;5013462;28;20599;-90
2023/01/09 11:35:21;;;;;;;17.57;2.90;;;9.20;99.90;;;;;;5031440;28;20309;-84
2023/01/09 11:37:57;;;;;;;14.70;4.17;;;9.30;99.90;;;;;;5033140;28;20199;-89
2023/01/09 11:40:26;;;;;;;11.70;3.03;;;9.40;99.90;;;;;;5025127;28;20202;-89
2023/01/09 11:43:14;;;;;;;13.50;3.73;;;9.50;99.90;;;;;;5036945;28;20302;-90
2023/01/09 11:45:48;;;;;;;14.97;4.13;;;9.50;99.90;;;;;;5032541;28;20198;-85
2023/01/09 11:48:27;;;;;;;13.03;4.47;;;9.60;99.90;;;;;;5017127;28;20213;-88
2023/01/09 11:50:58;;;;;;;13.70;3.13;;;9.60;99.90;;;;;;5008559;28;20206;-79
2023/01/09 11:53:26;;;;;;;14.47;3.53;;;9.60;99.90;;;;;;5006906;28;20211;-78
2023/01/09 11:56:01;;;;;;;10.43;3.07;;;9.60;99.90;;;;;;5007202;28;20482;-80
2023/01/09 11:58:33;;;;;;;17.83;3.70;;;9.60;99.90;;;;;;5007360;28;20230;-80
2023/01/09 12:01:14;;;;;;;12.27;3.90;;;9.70;99.90;;;;;;5007006;28;20234;-81
2023/01/09 12:04:05;;;;;;;18.83;3.63;;;9.60;99.90;;;;;;5015357;28;20206;-82
2023/01/09 12:06:43;;;;;;;15.63;3.00;;;9.60;99.90;;;;;;5026869;28;20205;-81
2023/01/09 12:09:17;;;;;;;14.13;3.53;;;9.60;99.90;;;;;;5019660;28;20309;-82
2023/01/09 12:11:53;;;;;;;12.77;3.90;;;9.60;99.90;;;;;;5028145;28;20385;-83
2023/01/09 12:14:41;;;;;;;12.60;3.40;;;9.60;99.90;;;;;;5007837;28;20381;-79
2023/01/09 12:17:36;;;;;;;14.10;3.47;;;9.60;99.90;;;;;;5006937;28;20198;-80
2023/01/09 12:20:41;;;;;;;16.70;4.47;;;9.60;99.90;;;;;;5007280;28;20205;-79
2023/01/09 12:23:32;;;;;;;11.60;3.23;;;9.50;99.90;;;;;;5005046;28;20297;-84
2023/01/09 12:26:09;;;;;;;15.43;3.10;;;9.50;99.90;;;;;;5000392;28;20207;-80
2023/01/09 12:28:59;;;;;;;14.37;3.23;;;9.40;99.90;;;;;;5007189;28;20209;-79
2023/01/09 12:31:41;;;;;;;11.00;3.43;;;9.50;99.90;;;;;;5007893;28;20202;-79
2023/01/09 12:34:25;;;;;;;17.13;3.33;;;9.60;99.90;;;;;;5006470;28;20203;-78
2023/01/09 12:37:03;;;;;;;14.97;3.43;;;9.70;99.90;;;;;;5003854;28;20245;-83
2023/01/09 12:39:39;;;;;;;9.63;3.03;;;9.70;99.90;;;;;;5015437;28;20203;-80
2023/01/09 12:42:17;;;;;;;16.83;3.03;;;9.70;99.90;;;;;;5025826;28;20236;-79
2023/01/09 12:44:51;;;;;;;10.60;2.93;;;9.70;99.90;;;;;;5019761;28;20211;-81
2023/01/09 12:47:47;;;;;;;11.17;3.03;;;9.70;99.90;;;;;;5005101;28;20210;-80
2023/01/09 12:50:36;;;;;;;19.70;3.07;;;9.70;99.90;;;;;;5004972;28;20254;-81
2023/01/09 12:53:09;;;;;;;15.77;2.87;;;9.60;99.90;;;;;;5004937;28;20768;-80
2023/01/09 12:55:40;;;;;;;13.13;3.27;;;9.60;99.90;;;;;;5005752;28;20525;-80
2023/01/09 12:58:18;;;;;;;11.73;3.30;;;9.60;99.90;;;;;;5004635;28;20207;-79
2023/01/09 13:00:51;;;;;;;18.27;3.27;;;9.60;99.90;;;;;;5013047;28;20214;-79
2023/01/09 13:03:25;;;;;;;12.73;3.43;;;9.60;99.90;;;;;;5025923;28;20199;-80
2023/01/09 13:05:53;;;;;;;15.53;2.70;;;9.60;99.90;;;;;;5023966;28;20322;-79
2023/01/09 13:08:24;;;;;;;16.27;2.83;;;9.60;99.90;;;;;;5024814;28;20226;-81
2023/01/09 13:10:53;;;;;;;11.97;2.73;;;9.70;99.90;;;;;;5019326;28;20220;-82
2023/01/09 13:13:26;;;;;;;15.53;3.00;;;9.70;99.90;;;;;;5027827;28;20244;-88
2023/01/09 13:15:58;;;;;;;11.20;2.93;;;9.70;99.90;;;;;;5015840;28;20628;-90
2023/01/09 13:18:32;;;;;;;11.53;3.27;;;9.70;99.90;;;;;;5038942;28;20216;-83
2023/01/09 13:21:00;;;;;;;17.13;2.77;;;9.80;99.90;;;;;;5022505;28;20300;-80
2023/01/09 13:23:33;;;;;;;12.13;2.53;;;9.80;99.90;;;;;;5023071;28;20201;-81
2023/01/09 13:26:04;;;;;;;16.47;3.10;;;9.80;99.90;;;;;;5021944;28;20496;-79
2023/01/09 13:28:35;;;;;;;13.50;3.00;;;9.80;99.90;;;;;;5026131;28;20289;-79